Time;durP1;ratioP1;P1;durP2;ratioP2;P2;SDS_P1;SDS_P2;PMS_P1;PMS_P2;Temp;Humidity;BMP_temperature;BMP_pressure;BME280_temperature;BME280_humidity;BME280_pressure;Samples;Min_cycle;Max_cycle;Signal;HPM_P1;HPM_P2
2021/04/09 00:01:45;;;;;;;8.00;6.30;;;7.50;69.30;;;;;;6174153;23;20429;-83
2021/04/09 00:04:13;;;;;;;9.77;6.83;;;7.50;69.30;;;;;;6181306;23;20442;-83
2021/04/09 00:06:40;;;;;;;8.40;6.90;;;7.50;69.70;;;;;;6183315;23;20397;-82
2021/04/09 00:09:11;;;;;;;12.30;7.57;;;7.50;70.00;;;;;;6184144;23;20436;-82
2021/04/09 00:11:38;;;;;;;10.03;6.93;;;7.40;70.40;;;;;;6184112;23;20410;-82
2021/04/09 00:14:06;;;;;;;9.47;6.10;;;7.30;70.70;;;;;;6184431;23;20504;-81
2021/04/09 00:16:33;;;;;;;10.03;7.03;;;7.50;71.00;;;;;;6186934;23;20401;-81
2021/04/09 00:19:00;;;;;;;7.87;7.03;;;7.40;70.60;;;;;;6184043;23;20488;-82
2021/04/09 00:21:27;;;;;;;11.90;7.30;;;7.60;71.10;;;;;;6186399;23;20517;-85
2021/04/09 00:23:53;;;;;;;9.00;7.47;;;7.40;71.80;;;;;;6185999;23;20449;-83
2021/04/09 00:26:19;;;;;;;7.80;6.83;;;7.50;73.90;;;;;;6184273;23;20497;-81
2021/04/09 00:28:45;;;;;;;7.63;6.83;;;7.30;75.80;;;;;;6185721;23;21175;-84
2021/04/09 00:31:12;;;;;;;9.43;6.83;;;7.20;77.60;;;;;;6185914;23;20432;-80
2021/04/09 00:33:38;;;;;;;8.17;7.37;;;7.50;78.00;;;;;;6186016;23;20438;-80
2021/04/09 00:36:04;;;;;;;12.20;6.80;;;7.20;77.90;;;;;;6186156;23;20464;-86
2021/04/09 00:38:31;;;;;;;8.97;8.07;;;7.10;79.00;;;;;;6186734;23;20453;-83
2021/04/09 00:40:58;;;;;;;12.47;6.80;;;7.20;78.20;;;;;;6185244;23;20436;-81
2021/04/09 00:43:24;;;;;;;8.30;6.60;;;7.00;78.60;;;;;;6186010;23;20528;-81
2021/04/09 00:45:50;;;;;;;7.83;6.47;;;7.20;78.30;;;;;;6186635;23;20402;-82
2021/04/09 00:48:16;;;;;;;8.63;6.70;;;7.30;76.60;;;;;;6195054;23;20397;-82
2021/04/09 00:50:42;;;;;;;8.10;7.10;;;7.10;76.50;;;;;;6206329;23;20398;-79
2021/04/09 00:53:13;;;;;;;7.50;6.30;;;7.10;76.90;;;;;;6199440;23;20430;-79
2021/04/09 00:55:40;;;;;;;7.00;5.83;;;7.20;76.70;;;;;;6202606;23;20378;-81
2021/04/09 00:58:08;;;;;;;7.03;6.07;;;7.20;76.50;;;;;;6201108;23;20406;-81
2021/04/09 01:00:34;;;;;;;7.53;5.57;;;7.10;76.80;;;;;;6204320;23;20429;-80
2021/04/09 01:03:01;;;;;;;7.87;6.23;;;7.20;77.10;;;;;;6205845;23;20516;-79
2021/04/09 01:05:28;;;;;;;8.00;6.03;;;7.20;76.70;;;;;;6206132;23;20489;-78
2021/04/09 01:07:54;;;;;;;15.03;7.40;;;7.20;76.80;;;;;;6205844;23;20417;-81
2021/04/09 01:10:21;;;;;;;7.80;6.30;;;7.00;77.20;;;;;;6207408;23;20461;-80
2021/04/09 01:12:49;;;;;;;6.77;5.27;;;7.10;78.70;;;;;;6208701;23;20453;-81
2021/04/09 01:15:17;;;;;;;6.67;6.00;;;7.20;79.50;;;;;;6208254;23;20461;-82
2021/04/09 01:17:53;;;;;;;7.87;6.30;;;7.30;79.80;;;;;;6184951;23;20417;-82
2021/04/09 01:20:43;;;;;;;9.63;6.80;;;7.30;80.70;;;;;;6202359;23;20448;-81
2021/04/09 01:23:24;;;;;;;7.63;6.20;;;7.20;81.30;;;;;;6192710;23;20453;-83
2021/04/09 01:26:29;;;;;;;6.77;5.50;;;7.10;82.00;;;;;;6181003;23;20417;-82
2021/04/09 01:29:34;;;;;;;6.87;5.63;;;7.30;81.70;;;;;;6178907;23;20401;-82
2021/04/09 01:32:03;;;;;;;7.20;5.50;;;7.20;81.60;;;;;;6181177;23;20478;-80
2021/04/09 01:34:36;;;;;;;5.83;5.00;;;7.20;81.50;;;;;;6180938;23;20798;-81
2021/04/09 01:37:12;;;;;;;9.13;5.30;;;7.20;80.50;;;;;;6179790;23;20398;-84
2021/04/09 01:39:41;;;;;;;6.03;5.43;;;7.00;81.00;;;;;;6178842;23;20916;-82
2021/04/09 01:42:11;;;;;;;10.10;5.73;;;7.10;81.90;;;;;;6181922;23;20445;-83
2021/04/09 01:44:46;;;;;;;6.53;5.40;;;7.10;81.90;;;;;;6179721;23;20406;-83
2021/04/09 01:47:13;;;;;;;6.03;5.43;;;7.00;82.40;;;;;;6182011;23;20386;-80
2021/04/09 01:49:41;;;;;;;8.27;6.00;;;7.00;82.90;;;;;;6182217;23;20500;-81
2021/04/09 01:52:10;;;;;;;9.00;5.60;;;7.20;83.70;;;;;;6182782;23;20719;-82
2021/04/09 01:54:39;;;;;;;9.80;6.10;;;7.00;83.80;;;;;;6185422;23;20489;-81
2021/04/09 01:57:11;;;;;;;7.87;5.70;;;7.00;84.20;;;;;;6185741;23;20567;-83
2021/04/09 01:59:39;;;;;;;10.43;6.27;;;7.30;83.80;;;;;;6184474;23;20414;-81
2021/04/09 02:02:07;;;;;;;9.00;6.20;;;7.30;83.50;;;;;;6181080;23;20774;-80
2021/04/09 02:04:34;;;;;;;5.90;5.40;;;7.10;83.90;;;;;;6182245;23;20438;-80
2021/04/09 02:07:01;;;;;;;7.20;6.50;;;6.90;85.20;;;;;;6183491;23;20402;-82
2021/04/09 02:09:30;;;;;;;10.90;5.80;;;6.90;86.20;;;;;;6183599;23;20744;-83
2021/04/09 02:11:58;;;;;;;7.20;5.37;;;7.20;85.60;;;;;;6181530;23;20413;-81
2021/04/09 02:14:26;;;;;;;6.87;5.20;;;7.20;84.10;;;;;;6182789;23;20527;-84
2021/04/09 02:16:53;;;;;;;7.67;5.27;;;7.00;84.70;;;;;;6182488;23;20428;-83
2021/04/09 02:19:22;;;;;;;5.50;4.87;;;6.90;85.50;;;;;;6181930;23;20495;-82
2021/04/09 02:21:49;;;;;;;9.30;5.63;;;7.40;85.30;;;;;;6186501;23;20489;-80
2021/04/09 02:24:15;;;;;;;9.30;5.67;;;7.50;84.20;;;;;;6190903;23;20449;-83
2021/04/09 02:26:43;;;;;;;7.40;5.83;;;7.40;84.20;;;;;;6190657;23;20438;-82
2021/04/09 02:29:10;;;;;;;7.83;5.70;;;7.50;84.30;;;;;;6185741;23;20454;-80
2021/04/09 02:31:37;;;;;;;6.77;5.30;;;7.40;84.20;;;;;;6185616;23;21142;-82
2021/04/09 02:34:03;;;;;;;6.10;5.60;;;7.30;84.90;;;;;;6184028;23;20473;-79
2021/04/09 02:36:32;;;;;;;6.40;5.33;;;7.20;85.40;;;;;;6195674;23;20390;-81
2021/04/09 02:39:11;;;;;;;6.27;5.00;;;7.20;84.80;;;;;;6191484;23;20456;-81
2021/04/09 02:41:41;;;;;;;10.83;6.37;;;7.20;85.50;;;;;;6180370;23;20469;-80
2021/04/09 02:44:08;;;;;;;8.27;6.00;;;7.20;85.70;;;;;;6180061;23;20472;-83
2021/04/09 02:46:38;;;;;;;7.20;6.17;;;7.40;85.80;;;;;;6180986;23;20410;-81
2021/04/09 02:49:21;;;;;;;6.13;5.53;;;7.50;84.80;;;;;;6180493;23;20422;-82
2021/04/09 02:51:51;;;;;;;6.43;5.80;;;7.30;84.50;;;;;;6180307;23;20493;-79
2021/04/09 02:54:18;;;;;;;7.03;5.93;;;7.30;84.90;;;;;;6179860;23;20438;-82
2021/04/09 02:56:46;;;;;;;9.43;6.20;;;7.10;85.20;;;;;;6181841;23;20410;-82
2021/04/09 02:59:14;;;;;;;6.83;5.20;;;7.10;85.70;;;;;;6180692;23;21373;-82
2021/04/09 03:01:42;;;;;;;6.10;5.50;;;7.10;85.80;;;;;;6183824;23;20417;-80
2021/04/09 03:04:10;;;;;;;8.17;6.80;;;7.00;85.80;;;;;;6190800;23;20429;-80
2021/04/09 03:06:38;;;;;;;10.60;5.70;;;6.90;86.00;;;;;;6195874;23;20414;-80
2021/04/09 03:09:05;;;;;;;6.73;5.87;;;6.80;86.20;;;;;;6195267;23;20526;-79
2021/04/09 03:11:35;;;;;;;8.67;6.00;;;6.80;86.60;;;;;;6195209;23;20454;-82
2021/04/09 03:14:02;;;;;;;8.93;5.80;;;6.60;86.90;;;;;;6195660;23;20417;-79
2021/04/09 03:16:33;;;;;;;6.83;4.90;;;6.60;87.30;;;;;;6184125;23;20466;-81
2021/04/09 03:18:59;;;;;;;7.53;5.87;;;6.50;87.00;;;;;;6178995;23;20442;-80
2021/04/09 03:21:25;;;;;;;10.37;6.20;;;6.80;86.30;;;;;;6177590;23;20414;-81
2021/04/09 03:23:52;;;;;;;8.43;6.40;;;6.80;85.20;;;;;;6177980;23;20437;-80
2021/04/09 03:26:18;;;;;;;8.97;6.23;;;6.70;85.40;;;;;;6176602;23;20709;-82
2021/04/09 03:28:44;;;;;;;6.50;5.10;;;6.60;85.50;;;;;;6177585;23;20414;-82
2021/04/09 03:31:10;;;;;;;7.33;5.33;;;6.50;86.40;;;;;;6178754;23;20410;-81
2021/04/09 03:33:36;;;;;;;10.30;6.60;;;6.60;86.70;;;;;;6189813;23;20430;-82
2021/04/09 03:36:03;;;;;;;10.80;6.00;;;6.70;85.80;;;;;;6190732;23;20400;-78
2021/04/09 03:38:29;;;;;;;10.80;6.20;;;6.50;86.20;;;;;;6190467;23;20417;-78
2021/04/09 03:40:55;;;;;;;7.30;5.67;;;6.50;87.20;;;;;;6160422;23;20410;-83
2021/04/09 03:43:21;;;;;;;6.40;5.47;;;6.70;86.80;;;;;;6201712;23;20516;-80
2021/04/09 03:45:48;;;;;;;6.57;5.83;;;6.70;86.40;;;;;;6201826;23;20394;-79
2021/04/09 03:48:14;;;;;;;6.50;5.03;;;6.70;86.40;;;;;;6203495;23;20421;-79
2021/04/09 03:50:40;;;;;;;6.67;5.40;;;6.50;87.50;;;;;;6204876;23;20425;-79
2021/04/09 03:53:07;;;;;;;9.70;6.17;;;6.50;88.30;;;;;;6179240;23;20437;-78
2021/04/09 03:55:33;;;;;;;7.83;5.87;;;6.70;87.70;;;;;;6196700;23;20407;-80
2021/04/09 03:57:59;;;;;;;7.47;5.90;;;6.70;87.30;;;;;;6186700;23;20473;-81
2021/04/09 04:00:26;;;;;;;6.37;5.73;;;6.80;86.90;;;;;;6185506;23;20420;-81
2021/04/09 04:02:53;;;;;;;7.07;6.03;;;6.70;86.70;;;;;;6181835;23;20847;-81
2021/04/09 04:05:21;;;;;;;6.83;5.70;;;6.50;87.10;;;;;;6156950;23;20402;-79
2021/04/09 04:07:47;;;;;;;12.30;6.10;;;6.40;88.00;;;;;;6183865;23;20867;-81
2021/04/09 04:10:14;;;;;;;6.27;5.67;;;6.50;88.70;;;;;;6184866;23;20446;-82
2021/04/09 04:12:40;;;;;;;6.77;5.87;;;6.40;89.20;;;;;;6184734;23;20922;-81
2021/04/09 04:15:07;;;;;;;6.83;6.00;;;6.50;90.00;;;;;;6184539;23;20429;-82
2021/04/09 04:17:33;;;;;;;13.80;6.83;;;6.90;89.40;;;;;;6183921;23;20421;-81
2021/04/09 04:20:00;;;;;;;10.17;6.60;;;6.90;88.80;;;;;;6159090;23;20417;-82
2021/04/09 04:22:26;;;;;;;6.57;5.87;;;7.00;88.50;;;;;;6158430;23;20436;-78
2021/04/09 04:24:53;;;;;;;9.80;6.50;;;7.00;88.30;;;;;;6157494;23;20746;-79
2021/04/09 04:27:20;;;;;;;19.23;6.97;;;7.10;88.00;;;;;;6184155;23;20428;-81
2021/04/09 04:29:47;;;;;;;8.77;6.70;;;6.90;88.10;;;;;;6187186;23;21022;-83
2021/04/09 04:32:13;;;;;;;7.33;6.00;;;6.90;88.60;;;;;;6185745;23;20410;-82
2021/04/09 04:34:39;;;;;;;7.70;6.10;;;6.80;88.90;;;;;;6191620;23;20418;-80
2021/04/09 04:37:05;;;;;;;6.87;5.97;;;6.90;88.60;;;;;;6178736;23;20474;-80
2021/04/09 04:39:32;;;;;;;11.60;6.53;;;6.80;88.70;;;;;;6178868;23;20465;-79
2021/04/09 04:41:58;;;;;;;8.27;6.80;;;6.80;88.70;;;;;;6204325;23;20426;-79
2021/04/09 04:44:24;;;;;;;12.53;7.30;;;6.70;89.00;;;;;;6204279;23;20540;-78
2021/04/09 04:46:51;;;;;;;7.70;6.33;;;6.80;89.60;;;;;;6179174;23;20473;-79
2021/04/09 04:49:20;;;;;;;9.80;6.63;;;6.80;89.00;;;;;;6178231;23;20846;-79
2021/04/09 04:51:46;;;;;;;10.93;7.00;;;6.70;88.90;;;;;;6202475;23;20474;-80
2021/04/09 04:54:12;;;;;;;7.30;6.60;;;6.70;89.60;;;;;;6191293;23;20465;-81
2021/04/09 04:56:39;;;;;;;8.30;6.60;;;6.60;90.00;;;;;;6184301;23;20406;-80
2021/04/09 04:59:05;;;;;;;7.33;5.80;;;6.80;89.60;;;;;;6195470;23;20410;-80
2021/04/09 05:01:31;;;;;;;8.30;6.47;;;6.70;89.30;;;;;;6198089;23;20592;-80
2021/04/09 05:03:57;;;;;;;9.17;6.33;;;6.70;90.00;;;;;;6174330;23;20452;-79
2021/04/09 05:06:23;;;;;;;13.53;6.53;;;6.70;90.10;;;;;;6180377;23;20421;-79
2021/04/09 05:08:49;;;;;;;7.03;6.20;;;6.50;90.30;;;;;;6205897;23;20456;-80
2021/04/09 05:11:16;;;;;;;8.30;6.60;;;6.60;91.00;;;;;;6171917;23;20378;-79
2021/04/09 05:13:42;;;;;;;8.37;7.27;;;6.80;90.20;;;;;;6206530;23;20432;-79
2021/04/09 05:16:08;;;;;;;10.57;7.20;;;6.90;89.60;;;;;;6207318;23;20442;-80
2021/04/09 05:18:34;;;;;;;9.57;6.60;;;6.90;89.00;;;;;;6180680;23;20430;-81
2021/04/09 05:21:01;;;;;;;7.90;6.80;;;6.90;89.00;;;;;;6188897;23;20402;-80
2021/04/09 05:23:27;;;;;;;8.40;6.60;;;6.90;88.30;;;;;;6189003;23;20446;-79
2021/04/09 05:25:53;;;;;;;7.53;6.07;;;6.90;88.30;;;;;;6184574;23;20410;-82
2021/04/09 05:28:19;;;;;;;8.83;7.00;;;6.90;88.20;;;;;;6188857;23;20421;-79
2021/04/09 05:30:47;;;;;;;7.73;6.90;;;7.00;87.60;;;;;;6184758;23;20413;-81
2021/04/09 05:33:14;;;;;;;9.83;6.10;;;7.00;87.50;;;;;;6183382;23;20442;-82
2021/04/09 05:35:40;;;;;;;7.77;7.00;;;7.10;87.10;;;;;;6185224;23;20416;-82
2021/04/09 05:38:06;;;;;;;9.50;6.80;;;7.10;87.10;;;;;;6158791;23;20418;-78
2021/04/09 05:40:32;;;;;;;10.00;6.43;;;7.20;87.10;;;;;;6158444;23;20410;-83
2021/04/09 05:43:01;;;;;;;7.73;6.50;;;7.10;86.80;;;;;;6185698;23;20449;-80
2021/04/09 05:45:28;;;;;;;7.03;6.33;;;7.10;87.20;;;;;;6157230;23;20447;-84
2021/04/09 05:48:01;;;;;;;8.30;7.00;;;7.20;86.80;;;;;;6167923;23;20471;-78
2021/04/09 05:50:27;;;;;;;8.00;6.30;;;7.30;86.60;;;;;;6172205;23;20478;-80
2021/04/09 05:52:53;;;;;;;7.80;7.03;;;7.40;85.90;;;;;;6171941;23;20434;-79
2021/04/09 05:55:19;;;;;;;7.93;6.60;;;7.50;85.40;;;;;;6171295;23;20416;-80
2021/04/09 05:57:45;;;;;;;7.77;6.40;;;7.40;85.20;;;;;;6193011;23;20410;-81
2021/04/09 06:00:13;;;;;;;9.97;7.37;;;7.20;85.80;;;;;;6165826;23;20482;-81
2021/04/09 06:02:40;;;;;;;7.83;5.80;;;7.40;86.30;;;;;;6161839;23;20445;-81
2021/04/09 06:05:07;;;;;;;7.77;5.77;;;7.50;86.00;;;;;;6197346;23;20733;-80
2021/04/09 06:07:33;;;;;;;7.80;6.80;;;7.60;85.90;;;;;;6198065;23;20420;-80
2021/04/09 06:09:59;;;;;;;11.40;7.20;;;7.60;86.20;;;;;;6172305;23;20521;-81
2021/04/09 06:12:26;;;;;;;8.23;6.40;;;7.70;86.10;;;;;;6195004;23;20677;-80
2021/04/09 06:14:52;;;;;;;9.40;6.50;;;7.90;85.80;;;;;;6171065;23;20405;-79
2021/04/09 06:17:19;;;;;;;7.97;7.00;;;8.00;85.80;;;;;;6189809;23;20408;-81
2021/04/09 06:19:49;;;;;;;8.50;6.70;;;7.90;85.70;;;;;;6185010;23;20410;-83
2021/04/09 06:22:16;;;;;;;10.80;6.77;;;7.60;86.20;;;;;;6159410;23;20882;-83
2021/04/09 06:24:43;;;;;;;10.67;6.90;;;7.90;86.60;;;;;;6134209;23;20480;-84
2021/04/09 06:27:09;;;;;;;8.10;6.40;;;7.90;85.60;;;;;;6181283;23;20421;-82
2021/04/09 06:29:37;;;;;;;12.90;7.70;;;8.00;85.40;;;;;;6183959;23;21177;-79
2021/04/09 06:32:04;;;;;;;8.97;6.70;;;8.00;84.70;;;;;;6182839;23;20924;-83
2021/04/09 06:34:31;;;;;;;8.57;7.20;;;8.00;84.60;;;;;;6182300;23;21099;-83
2021/04/09 06:36:57;;;;;;;7.77;6.40;;;8.20;84.30;;;;;;6182405;23;20467;-81
2021/04/09 06:39:23;;;;;;;13.67;7.07;;;8.30;83.40;;;;;;6182362;23;21006;-82
2021/04/09 06:41:50;;;;;;;7.80;6.90;;;8.20;83.30;;;;;;6156057;23;20440;-83
2021/04/09 06:44:19;;;;;;;9.93;7.20;;;8.40;82.80;;;;;;6181052;23;20449;-81
2021/04/09 06:46:45;;;;;;;10.47;6.57;;;8.50;82.20;;;;;;6184645;23;20823;-84
2021/04/09 06:49:12;;;;;;;11.53;6.30;;;8.70;81.40;;;;;;6182119;23;20414;-82
2021/04/09 06:51:43;;;;;;;10.70;7.10;;;8.50;81.40;;;;;;6181631;23;20443;-83
2021/04/09 06:54:11;;;;;;;8.40;6.20;;;8.80;80.90;;;;;;6181183;23;20442;-81
2021/04/09 06:56:38;;;;;;;7.03;6.33;;;9.10;80.30;;;;;;6181013;23;20470;-81
2021/04/09 06:59:06;;;;;;;8.97;6.60;;;9.30;79.40;;;;;;6153780;23;20421;-82
2021/04/09 07:01:34;;;;;;;9.07;7.20;;;9.30;78.60;;;;;;6170512;23;20888;-83
2021/04/09 07:04:03;;;;;;;11.70;8.03;;;9.20;78.70;;;;;;6180932;23;20466;-80
2021/04/09 07:06:30;;;;;;;9.17;7.60;;;9.60;78.70;;;;;;6182532;23;20416;-80
2021/04/09 07:08:56;;;;;;;9.60;7.30;;;10.00;75.90;;;;;;6182406;23;20425;-83
2021/04/09 07:11:22;;;;;;;8.70;7.57;;;10.20;74.50;;;;;;6182522;23;20406;-81
2021/04/09 07:13:52;;;;;;;9.17;6.20;;;10.60;73.50;;;;;;6182635;23;20556;-83
2021/04/09 07:16:20;;;;;;;10.77;7.20;;;10.80;71.90;;;;;;6180683;23;20405;-81
2021/04/09 07:18:51;;;;;;;11.73;7.03;;;10.80;71.10;;;;;;6184161;23;20905;-81
2021/04/09 07:21:22;;;;;;;12.60;6.90;;;10.90;71.90;;;;;;6183300;23;20746;-83
2021/04/09 07:23:49;;;;;;;11.20;7.30;;;11.10;71.10;;;;;;6183660;23;20976;-81
2021/04/09 07:26:42;;;;;;;8.10;6.70;;;12.40;69.70;;;;;;6184137;23;20949;-81
2021/04/09 07:29:30;;;;;;;8.13;6.37;;;14.00;63.90;;;;;;6183402;23;20418;-84
2021/04/09 07:31:58;;;;;;;9.53;6.63;;;14.40;58.70;;;;;;6185351;23;20402;-81
2021/04/09 07:34:25;;;;;;;9.63;7.30;;;13.90;58.60;;;;;;6183297;23;20544;-82
2021/04/09 07:36:56;;;;;;;20.43;15.27;;;14.00;58.70;;;;;;6185786;23;20684;-81
2021/04/09 07:39:33;;;;;;;8.13;5.80;;;14.20;58.00;;;;;;6186044;23;20461;-84
2021/04/09 07:42:07;;;;;;;10.03;6.93;;;13.70;58.20;;;;;;6186818;23;20428;-80
2021/04/09 07:44:33;;;;;;;9.43;6.17;;;14.20;59.10;;;;;;6183469;23;20483;-81
2021/04/09 07:47:15;;;;;;;8.03;6.20;;;15.00;58.10;;;;;;6184152;23;20758;-82
2021/04/09 07:49:41;;;;;;;8.80;6.77;;;16.30;56.00;;;;;;6185599;23;20416;-79
2021/04/09 07:52:15;;;;;;;11.97;7.17;;;16.60;53.40;;;;;;6193735;23;20410;-79
2021/04/09 07:54:42;;;;;;;7.10;6.40;;;16.70;52.60;;;;;;6192862;23;20447;-82
2021/04/09 07:57:26;;;;;;;9.90;7.53;;;17.30;50.90;;;;;;6195651;23;20406;-80
2021/04/09 07:59:52;;;;;;;9.63;7.40;;;17.70;50.40;;;;;;6197524;23;20456;-82
2021/04/09 08:17:14;;;;;;;;;;;;;;;;;;;;;
2021/04/09 08:21:30;;;;;;;9.07;5.67;;;17.00;42.90;;;;;;6063350;23;20398;-82
2021/04/09 08:29:09;;;;;;;;;;;;;;;;;;;;;
2021/04/09 08:39:46;;;;;;;7.67;5.90;;;17.20;43.30;;;;;;6034664;23;20423;-81
2021/04/09 08:43:56;;;;;;;9.97;6.70;;;17.10;44.40;;;;;;6058074;23;20474;-82
2021/04/09 08:51:25;;;;;;;5.87;5.27;;;18.10;42.10;;;;;;6088553;23;20419;-82
2021/04/09 09:00:06;;;;;;;;;;;;;;;;;;;;;
2021/04/09 09:03:18;;;;;;;8.23;5.90;;;15.80;44.80;;;;;;6008018;23;20494;-82
2021/04/09 09:06:47;;;;;;;5.93;5.33;;;16.80;45.20;;;;;;6015698;23;20939;-79
2021/04/09 09:09:53;;;;;;;8.80;5.27;;;17.70;43.00;;;;;;6141304;23;20411;-77
2021/04/09 09:12:38;;;;;;;7.17;5.57;;;18.20;42.70;;;;;;6138891;23;20439;-81
2021/04/09 09:15:47;;;;;;;7.43;5.70;;;19.00;40.30;;;;;;6129934;23;20442;-77
2021/04/09 09:22:47;;;;;;;9.77;6.53;;;18.90;39.80;;;;;;6143912;23;20490;-77
2021/04/09 09:25:53;;;;;;;9.37;5.97;;;17.90;41.00;;;;;;6004872;23;20396;-76
2021/04/09 09:29:15;;;;;;;8.07;5.43;;;16.90;42.00;;;;;;6019541;23;20459;-78
2021/04/09 09:39:02;;;;;;;6.20;4.57;;;15.40;45.30;;;;;;5939926;24;20433;-81
2021/04/09 09:41:54;;;;;;;6.43;4.87;;;15.90;44.70;;;;;;5935091;24;20434;-78
2021/04/09 09:45:13;;;;;;;7.83;4.80;;;15.80;45.40;;;;;;5933362;24;20530;-78
2021/04/09 09:48:21;;;;;;;7.37;5.53;;;15.90;44.90;;;;;;5930879;24;20398;-77
2021/04/09 09:51:14;;;;;;;7.73;5.60;;;15.90;44.80;;;;;;5899784;24;20520;-77
2021/04/09 09:53:56;;;;;;;5.27;4.77;;;16.40;44.80;;;;;;5919559;24;20485;-79
2021/04/09 09:57:54;;;;;;;;;;;;;;;;;;;;;
2021/04/09 10:01:16;;;;;;;5.60;5.00;;;17.40;43.20;;;;;;5948720;24;21281;-78
2021/04/09 10:04:36;;;;;;;8.20;4.83;;;18.10;42.80;;;;;;5947850;24;20456;-81
2021/04/09 10:07:17;;;;;;;7.33;5.47;;;19.00;40.30;;;;;;5950142;24;20862;-78
2021/04/09 10:10:58;;;;;;;5.83;5.30;;;17.90;40.80;;;;;;5981936;23;20411;-80
2021/04/09 10:13:52;;;;;;;4.90;4.40;;;16.90;43.00;;;;;;5966214;23;20439;-78
2021/04/09 10:17:10;;;;;;;6.93;4.87;;;17.70;42.90;;;;;;6005074;23;20427;-80
2021/04/09 10:19:58;;;;;;;8.20;5.00;;;17.90;41.90;;;;;;6005270;23;20431;-80
2021/04/09 10:33:17;;;;;;;;;;;;;;;;;;;;;
2021/04/09 10:36:49;;;;;;;5.77;4.90;;;16.90;43.00;;;;;;6092608;23;20433;-81
2021/04/09 10:40:27;;;;;;;8.03;5.20;;;16.30;44.20;;;;;;6046772;23;20747;-80
2021/04/09 10:44:30;;;;;;;;;;;;;;;;;;;;;
2021/04/09 10:47:36;;;;;;;5.97;5.00;;;15.50;45.70;;;;;;5919069;24;20502;-81
2021/04/09 11:01:50;;;;;;;6.53;4.40;;;15.00;47.50;;;;;;6212496;23;20385;-83
2021/04/09 11:05:05;;;;;;;6.90;5.30;;;15.20;47.30;;;;;;6024342;23;20529;-83
2021/04/09 11:08:51;;;;;;;;;;;;;;;;;;;;;
2021/04/09 11:17:04;;;;;;;8.17;4.63;;;16.60;45.90;;;;;;5841605;24;20409;-80
2021/04/09 11:20:24;;;;;;;5.20;4.40;;;16.90;45.00;;;;;;5903803;24;20797;-82
2021/04/09 11:27:44;;;;;;;6.37;4.60;;;17.30;44.30;;;;;;5866823;24;20392;-80
2021/04/09 11:35:21;;;;;;;6.90;4.53;;;17.20;44.70;;;;;;5815029;24;20494;-77
2021/04/09 11:48:44;;;;;;;;;;;;;;;;;;;;;
2021/04/09 11:51:41;;;;;;;;;;;;;;;;;;;;;
2021/04/09 11:59:17;;;;;;;5.30;4.03;;;18.10;42.60;;;;;;5977654;24;20483;-83
2021/04/09 12:02:32;;;;;;;5.40;4.17;;;18.40;42.30;;;;;;6006667;23;20660;-84
2021/04/09 12:06:29;;;;;;;4.83;4.27;;;20.00;39.60;;;;;;5933497;23;20445;-81
2021/04/09 12:13:25;;;;;;;7.30;5.47;;;20.50;39.90;;;;;;5923252;24;20438;-80
2021/04/09 12:17:06;;;;;;;5.77;4.00;;;19.90;39.50;;;;;;5974419;24;20399;-81
2021/04/09 12:20:33;;;;;;;7.67;5.00;;;18.70;40.70;;;;;;5971965;23;20768;-81
2021/04/09 12:26:46;;;;;;;6.30;4.87;;;19.80;40.50;;;;;;6152919;23;20466;-80
2021/04/09 12:29:55;;;;;;;5.50;4.60;;;19.20;40.40;;;;;;6069649;23;21049;-80
2021/04/09 12:41:14;;;;;;;5.23;4.73;;;20.40;39.60;;;;;;6183640;23;20467;-80
2021/04/09 12:52:24;;;;;;;4.63;4.23;;;19.30;40.70;;;;;;5994664;23;20386;-80
2021/04/09 12:59:34;;;;;;;;;;;;;;;;;;;;;
2021/04/09 13:06:02;;;;;;;6.60;6.00;;;19.00;40.90;;;;;;5922589;24;20461;-81
2021/04/09 13:09:44;;;;;;;;;;;;;;;;;;;;;
2021/04/09 13:13:41;;;;;;;5.93;5.43;;;19.80;40.70;;;;;;5884703;24;20481;-81
2021/04/09 13:17:03;;;;;;;6.73;4.90;;;20.40;39.50;;;;;;5816126;24;20397;-80
2021/04/09 13:28:16;;;;;;;6.47;5.00;;;19.10;40.60;;;;;;5838416;24;21287;-82
2021/04/09 13:46:38;;;;;;;5.43;4.93;;;19.30;39.80;;;;;;6214617;23;20420;-82
2021/04/09 13:50:16;;;;;;;6.70;5.47;;;19.00;40.30;;;;;;6151987;23;20885;-82
2021/04/09 13:54:08;;;;;;;;;;;;;;;;;;;;;
2021/04/09 13:57:20;;;;;;;6.60;5.90;;;19.30;40.00;;;;;;5904257;23;20407;-80
2021/04/09 14:00:41;;;;;;;5.40;4.90;;;19.40;39.90;;;;;;5993785;23;20510;-79
2021/04/09 14:03:47;;;;;;;8.10;5.30;;;19.50;40.20;;;;;;5973919;23;20445;-81
2021/04/09 14:11:14;;;;;;;6.20;5.60;;;20.00;38.70;;;;;;5806888;24;20424;-80
2021/04/09 14:14:25;;;;;;;9.90;5.30;;;19.30;39.20;;;;;;5784510;24;20471;-84
2021/04/09 14:17:53;;;;;;;5.50;5.07;;;18.80;39.90;;;;;;5765412;24;20463;-82
2021/04/09 15:01:21;;;;;;;7.13;6.43;;;18.90;40.30;;;;;;6056203;23;20432;-82
2021/04/09 15:12:22;;;;;;;6.30;5.70;;;18.80;41.70;;;;;;5973778;23;20394;-82
2021/04/09 15:16:00;;;;;;;;;;;;;;;;;;;;;
2021/04/09 15:19:42;;;;;;;;;;;;;;;;;;;;;
2021/04/09 15:29:56;;;;;;;7.50;5.67;;;18.60;41.80;;;;;;6139973;23;21181;-79
2021/04/09 15:32:46;;;;;;;7.40;6.57;;;18.60;42.20;;;;;;6104045;23;20501;-81
2021/04/09 15:43:51;;;;;;;10.97;8.43;;;18.90;42.30;;;;;;6120236;23;20497;-80
2021/04/09 15:47:08;;;;;;;7.70;6.97;;;18.40;42.90;;;;;;5921052;24;20457;-83
2021/04/09 15:50:29;;;;;;;;;;;;;;;;;;;;;
2021/04/09 15:53:45;;;;;;;7.50;6.80;;;18.00;43.60;;;;;;5974413;23;20835;-82
2021/04/09 16:01:20;;;;;;;9.73;7.27;;;18.00;44.10;;;;;;5979818;23;20407;-80
2021/04/09 16:04:22;;;;;;;;;;;;;;;;;;;;;
2021/04/09 16:07:40;;;;;;;8.30;6.70;;;17.70;44.00;;;;;;5980738;23;20904;-80
2021/04/09 16:15:07;;;;;;;6.80;6.13;;;17.80;44.40;;;;;;6039402;23;20437;-79
2021/04/09 16:30:39;;;;;;;;;;;;;;;;;;;;;
2021/04/09 16:37:14;;;;;;;;;;;;;;;;;;;;;
2021/04/09 16:51:09;;;;;;;;;;;;;;;;;;;;;
2021/04/09 16:54:58;;;;;;;;;;;;;;;;;;;;;
2021/04/09 16:59:04;;;;;;;;;;;;;;;;;;;;;
2021/04/09 17:17:04;;;;;;;8.53;7.60;;;17.60;46.30;;;;;;5739156;24;20640;-78
2021/04/09 17:25:33;;;;;;;8.27;6.80;;;17.10;46.90;;;;;;5683302;25;20489;-84
2021/04/09 17:55:19;;;;;;;;;;;;;;;;;;;;;
2021/04/09 18:12:52;;;;;;;7.77;6.97;;;16.60;48.10;;;;;;6131027;23;20394;-81
2021/04/09 18:16:55;;;;;;;;;;;;;;;;;;;;;
2021/04/09 18:25:10;;;;;;;;;;;;;;;;;;;;;
2021/04/09 18:32:19;;;;;;;;;;;;;;;;;;;;;
2021/04/09 18:42:34;;;;;;;9.53;6.83;;;15.90;50.00;;;;;;5890932;24;20427;-78
2021/04/09 18:54:04;;;;;;;;;;;;;;;;;;;;;
2021/04/09 18:57:22;;;;;;;10.27;7.27;;;16.00;50.10;;;;;;5904531;24;20587;-81
2021/04/09 19:00:45;;;;;;;10.73;8.67;;;16.00;50.40;;;;;;5982744;23;20458;-80
2021/04/09 19:07:33;;;;;;;;;;;;;;;;;;;;;
2021/04/09 19:14:12;;;;;;;9.60;8.00;;;16.00;50.50;;;;;;5917405;24;20534;-80
2021/04/09 19:21:10;;;;;;;;;;;;;;;;;;;;;
2021/04/09 19:24:11;;;;;;;10.37;8.10;;;15.50;52.00;;;;;;5863636;24;20588;-82
2021/04/09 19:27:29;;;;;;;;;;;;;;;;;;;;;
2021/04/09 19:37:29;;;;;;;10.73;8.97;;;16.10;50.90;;;;;;6173811;23;20444;-81
2021/04/09 19:40:56;;;;;;;11.57;8.80;;;15.80;51.80;;;;;;6174320;23;20413;-81
2021/04/09 19:43:42;;;;;;;10.17;9.13;;;15.70;51.90;;;;;;6142400;23;20527;-81
2021/04/09 19:46:49;;;;;;;10.50;7.90;;;15.50;52.20;;;;;;6118211;23;20438;-80
2021/04/09 19:49:31;;;;;;;11.50;9.50;;;15.30;53.00;;;;;;6120849;23;20427;-80
2021/04/09 19:52:30;;;;;;;9.07;8.27;;;15.50;53.50;;;;;;6121075;23;20874;-82
2021/04/09 19:55:46;;;;;;;10.23;8.90;;;15.30;53.30;;;;;;6027700;23;20411;-80
2021/04/09 20:02:11;;;;;;;9.47;8.40;;;15.00;53.70;;;;;;6017145;23;20488;-81
2021/04/09 20:23:26;;;;;;;12.50;8.97;;;14.90;55.20;;;;;;6195565;23;20432;-84
2021/04/09 20:26:47;;;;;;;10.73;9.33;;;14.80;54.90;;;;;;6176334;23;20405;-81
2021/04/09 20:33:04;;;;;;;9.00;8.10;;;14.80;55.20;;;;;;6086561;23;20440;-83
2021/04/09 20:35:58;;;;;;;12.23;10.40;;;14.80;55.50;;;;;;6125066;23;20405;-81
2021/04/09 20:39:03;;;;;;;11.67;9.30;;;15.00;55.90;;;;;;6115423;23;20747;-83
2021/04/09 20:42:00;;;;;;;10.50;9.40;;;14.90;55.50;;;;;;6140513;23;20762;-82
2021/04/09 20:45:09;;;;;;;12.20;9.87;;;14.90;56.90;;;;;;6155326;23;20437;-82
2021/04/09 20:48:27;;;;;;;10.93;9.87;;;14.90;57.40;;;;;;6123757;23;20452;-84
2021/04/09 20:52:01;;;;;;;10.77;9.67;;;15.10;56.40;;;;;;6178282;23;20421;-82
2021/04/09 20:55:21;;;;;;;;;;;;;;;;;;;;;
2021/04/09 20:58:33;;;;;;;10.20;9.20;;;14.80;57.00;;;;;;6178198;23;20418;-79
2021/04/09 21:01:49;;;;;;;11.47;9.23;;;14.70;56.50;;;;;;6159163;23;20789;-82
2021/04/09 21:04:51;;;;;;;10.97;9.17;;;15.00;57.30;;;;;;6175204;23;20438;-80
2021/04/09 21:12:19;;;;;;;;;;;;;;;;;;;;;
2021/04/09 21:15:33;;;;;;;12.40;10.63;;;14.80;57.20;;;;;;5994573;23;20447;-79
2021/04/09 21:24:41;;;;;;;16.53;12.10;;;14.70;60.00;;;;;;6079094;23;20445;-82
2021/04/09 21:27:34;;;;;;;18.37;12.33;;;14.60;60.10;;;;;;6084156;23;20512;-79
2021/04/09 21:30:59;;;;;;;15.63;11.80;;;14.60;61.80;;;;;;6094453;23;20535;-79
2021/04/09 21:33:55;;;;;;;44.70;23.50;;;14.40;63.60;;;;;;6011105;23;20448;-80
2021/04/09 21:40:06;;;;;;;23.70;15.60;;;14.20;67.70;;;;;;6030104;23;20427;-80
2021/04/09 21:43:15;;;;;;;29.23;19.80;;;13.90;71.90;;;;;;6104690;23;20506;-79
2021/04/09 21:49:34;;;;;;;42.27;23.80;;;13.70;77.30;;;;;;6099228;23;20399;-84
2021/04/09 21:56:05;;;;;;;54.90;29.10;;;13.70;81.80;;;;;;6125265;23;20423;-81